Terminal Aerodrome Forecast
Issued by NWS

Home | Current Version | Previous Version | Graphics & Text | Print | Product List | Glossary On
Versions: 1 2 3 4 5 6 7 8 9 10 11 12 13 14 15 16 17 18 19 20 21 22 23 24
000
FTUS43 KICT 261252 AAA
TAFCNU
TAF AMD
KCNU 261252Z 2613/2712 00000KT 6SM BR OVC008
      TEMPO 2613/2615 4SM BR OVC005
     FM261600 22005KT P6SM SCT008 BKN012
     FM261800 17006KT P6SM SCT030 BKN200
     FM262300 08013KT P6SM VCTS BKN060CB
     FM270300 08014G20KT P6SM VCTS SCT015 BKN030CB=

USA.gov is the U.S. government's official web portal to all federal, state and local government web resources and services.